createdAt,value
2019-05-07T00:01:56.867Z,79.39
2019-05-07T00:05:12.047Z,79.00
2019-05-07T00:08:25.828Z,78.46
2019-05-07T00:11:39.753Z,79.06
2019-05-07T00:15:00.941Z,79.11
2019-05-07T00:18:08.974Z,78.64
2019-05-07T00:21:23.464Z,79.13
2019-05-07T00:24:37.072Z,79.78
2019-05-07T00:27:52.334Z,79.99
2019-05-07T00:31:06.070Z,79.55
2019-05-07T00:34:22.089Z,79.65
2019-05-07T00:37:43.159Z,79.18
2019-05-07T00:41:16.242Z,79.09
2019-05-07T00:44:32.693Z,79.42
2019-05-07T00:47:46.143Z,79.08
2019-05-07T00:51:18.061Z,79.22
2019-05-07T00:54:32.545Z,79.53
2019-05-07T00:57:46.104Z,79.47
2019-05-07T01:00:59.601Z,79.60
2019-05-07T01:04:13.217Z,79.27
2019-05-07T01:07:26.819Z,80.04
2019-05-07T01:10:41.973Z,79.86
2019-05-07T01:13:55.559Z,79.81
2019-05-07T01:17:09.440Z,79.66
2019-05-07T01:20:22.947Z,80.83
2019-05-07T01:23:36.638Z,80.04
2019-05-07T01:26:50.345Z,80.31
2019-05-07T01:30:04.906Z,79.97
2019-05-07T01:33:44.516Z,79.78
2019-05-07T01:36:58.325Z,79.93
2019-05-07T01:40:12.326Z,79.31
2019-05-07T01:43:25.926Z,79.12
2019-05-07T01:46:39.421Z,79.27
2019-05-07T01:49:55.114Z,79.45
2019-05-07T01:53:08.681Z,79.27
2019-05-07T01:56:22.982Z,79.42
2019-05-07T01:59:36.566Z,80.15
2019-05-07T02:02:56.001Z,80.62
2019-05-07T02:06:32.792Z,80.07
2019-05-07T02:10:11.989Z,81.09
2019-05-07T02:13:25.544Z,81.02
2019-05-07T02:16:39.416Z,80.72
2019-05-07T02:19:52.909Z,80.24
2019-05-07T02:23:06.480Z,80.54
2019-05-07T02:26:22.378Z,80.59
2019-05-07T02:29:38.114Z,81.35
2019-05-07T02:32:54.026Z,81.06
2019-05-07T02:36:06.963Z,80.61
2019-05-07T02:39:27.363Z,80.50
2019-05-07T02:42:44.073Z,80.57
2019-05-07T02:46:26.471Z,80.67
2019-05-07T02:49:43.814Z,81.01
2019-05-07T02:53:04.382Z,81.00
2019-05-07T02:56:23.538Z,81.56
2019-05-07T02:59:36.782Z,81.80
2019-05-07T03:02:52.975Z,81.58
2019-05-07T03:06:06.153Z,81.56
2019-05-07T03:09:22.606Z,82.38
2019-05-07T03:12:35.115Z,81.74
2019-05-07T03:15:48.735Z,81.55
2019-05-07T03:19:04.117Z,81.41
2019-05-07T03:22:17.819Z,81.26
2019-05-07T03:25:53.807Z,81.20
2019-05-07T03:29:13.094Z,81.04
2019-05-07T03:32:38.190Z,81.80
2019-05-07T03:35:56.015Z,82.02
2019-05-07T03:39:09.353Z,81.90
2019-05-07T03:42:23.635Z,81.90
2019-05-07T03:45:57.153Z,81.98
2019-05-07T03:49:26.144Z,81.85
2019-05-07T03:52:42.632Z,81.76
2019-05-07T03:55:55.689Z,81.56
2019-05-07T03:59:13.038Z,81.85
2019-05-07T04:02:26.685Z,81.95
2019-05-07T04:05:43.028Z,81.76
2019-05-07T04:08:55.685Z,81.66
2019-05-07T04:12:09.295Z,81.86
2019-05-07T04:15:23.523Z,82.00
2019-05-07T04:18:37.534Z,82.11
2019-05-07T04:21:53.404Z,81.89
2019-05-07T04:25:24.714Z,82.40
2019-05-07T04:29:05.543Z,82.38
2019-05-07T04:32:23.171Z,81.83
2019-05-07T04:35:43.375Z,81.44
2019-05-07T04:38:57.121Z,81.51
2019-05-07T04:42:13.251Z,81.18
2019-05-07T04:45:26.335Z,80.92
2019-05-07T04:48:39.843Z,80.67
2019-05-07T04:52:04.558Z,80.84
2019-05-07T04:55:18.151Z,80.52
2019-05-07T04:58:33.842Z,81.18
2019-05-07T05:02:09.373Z,80.92
2019-05-07T05:05:24.061Z,80.25
2019-05-07T05:08:37.510Z,80.07
2019-05-07T05:11:53.058Z,80.28
2019-05-07T05:16:42.621Z,79.56
2019-05-07T05:19:56.502Z,78.91
2019-05-07T05:23:17.908Z,78.58
2019-05-07T05:26:32.483Z,77.82
2019-05-07T05:29:46.198Z,77.97
2019-05-07T05:33:02.207Z,78.03
2019-05-07T05:36:16.927Z,77.50
2019-05-07T05:39:32.038Z,77.24
2019-05-07T05:42:52.797Z,76.95
2019-05-07T05:46:06.905Z,77.11
2019-05-07T05:49:22.789Z,77.67
2019-05-07T05:52:43.441Z,77.36
2019-05-07T05:55:59.433Z,76.42
2019-05-07T05:59:44.985Z,75.30
2019-05-07T06:02:53.945Z,75.04
2019-05-07T06:06:14.340Z,74.96
2019-05-07T06:09:38.981Z,74.13
2019-05-07T06:13:12.438Z,73.00
2019-05-07T06:16:32.737Z,72.20
2019-05-07T06:19:51.861Z,72.04
2019-05-07T06:23:33.086Z,72.08
2019-05-07T06:26:46.701Z,71.80
2019-05-07T06:30:02.870Z,71.46
2019-05-07T06:33:15.793Z,70.35
2019-05-07T06:36:32.860Z,69.33
2019-05-07T06:40:08.215Z,68.98
2019-05-07T06:43:44.627Z,67.85
2019-05-07T06:46:58.472Z,67.49
2019-05-07T06:50:12.610Z,67.25
2019-05-07T06:53:28.073Z,67.11
2019-05-07T06:56:42.170Z,66.95
2019-05-07T06:59:59.725Z,65.30
2019-05-07T07:03:35.955Z,64.10
2019-05-07T07:07:08.056Z,62.46
2019-05-07T07:10:32.347Z,61.88
2019-05-07T07:13:46.177Z,59.50
2019-05-07T07:17:02.184Z,57.64
2019-05-07T07:20:15.685Z,56.31
2019-05-07T07:23:29.573Z,54.59
2019-05-07T07:26:43.623Z,55.34
2019-05-07T07:30:03.820Z,55.64
2019-05-07T07:33:18.123Z,54.99
2019-05-07T07:36:36.239Z,54.39
2019-05-07T07:39:52.468Z,54.33
2019-05-07T07:43:07.145Z,54.57
2019-05-07T07:46:22.174Z,54.99
2019-05-07T07:49:36.022Z,55.00
2019-05-07T07:52:49.845Z,56.35
2019-05-07T07:56:48.289Z,54.10
2019-05-07T07:59:56.950Z,52.89
2019-05-07T08:03:13.237Z,55.28
2019-05-07T08:06:28.539Z,54.94
2019-05-07T08:09:42.768Z,54.09
2019-05-07T08:12:56.839Z,52.18
2019-05-07T08:16:12.794Z,50.86
2019-05-07T08:19:26.053Z,51.21
2019-05-07T08:22:39.684Z,53.50
2019-05-07T08:25:53.197Z,52.31
2019-05-07T08:29:06.690Z,51.43
2019-05-07T08:32:27.528Z,53.85
2019-05-07T08:36:02.687Z,53.77
2019-05-07T08:39:16.518Z,53.32
2019-05-07T08:42:32.057Z,51.64
2019-05-07T08:45:54.929Z,50.99
2019-05-07T08:49:09.347Z,52.85
2019-05-07T08:52:26.155Z,52.69
2019-05-07T08:55:39.472Z,51.00
2019-05-07T08:58:53.194Z,51.42
2019-05-07T09:02:06.906Z,51.57
2019-05-07T09:05:22.097Z,51.79
2019-05-07T09:08:36.310Z,52.08
2019-05-07T09:11:51.857Z,49.22
2019-05-07T09:15:06.811Z,49.00
2019-05-07T09:18:22.836Z,48.17
2019-05-07T09:21:38.063Z,49.60
2019-05-07T09:24:52.673Z,47.94
2019-05-07T09:28:06.763Z,47.53
2019-05-07T09:31:32.223Z,47.67
2019-05-07T09:34:46.626Z,46.13
2019-05-07T09:38:00.122Z,45.16
2019-05-07T09:41:25.823Z,45.80
2019-05-07T09:44:39.703Z,43.82
2019-05-07T09:47:53.410Z,40.44
2019-05-07T09:51:07.210Z,41.61
2019-05-07T09:54:22.984Z,42.05
2019-05-07T09:57:36.629Z,41.62
2019-05-07T10:00:50.345Z,41.42
2019-05-07T10:04:04.260Z,39.46
2019-05-07T10:07:18.202Z,37.47
2019-05-07T10:10:32.910Z,38.42
2019-05-07T10:13:58.096Z,37.71
2019-05-07T10:17:17.933Z,38.79
2019-05-07T10:20:32.799Z,39.05
2019-05-07T10:23:46.691Z,37.41
2019-05-07T10:27:02.258Z,36.96
2019-05-07T10:30:16.196Z,37.44
2019-05-07T10:33:31.790Z,35.92
2019-05-07T10:36:45.553Z,37.25
2019-05-07T10:39:59.578Z,38.20
2019-05-07T10:43:13.270Z,35.24
2019-05-07T10:46:45.782Z,35.88
2019-05-07T10:50:17.613Z,39.70
2019-05-07T10:53:32.079Z,37.82
2019-05-07T10:56:45.773Z,40.77
2019-05-07T10:59:59.554Z,34.89
2019-05-07T11:03:13.175Z,35.03
2019-05-07T11:06:27.132Z,34.61
2019-05-07T11:09:42.038Z,34.46
2019-05-07T11:12:56.161Z,35.80
2019-05-07T11:16:12.673Z,39.77
2019-05-07T11:19:26.278Z,39.44
2019-05-07T11:22:40.036Z,37.80
2019-05-07T11:25:53.744Z,36.44
2019-05-07T11:29:07.609Z,37.63
2019-05-07T11:32:21.631Z,39.94
2019-05-07T11:35:35.646Z,38.35
2019-05-07T11:38:49.494Z,36.94
2019-05-07T11:42:26.208Z,38.33
2019-05-07T11:45:54.021Z,37.28
2019-05-07T11:49:17.160Z,36.33
2019-05-07T11:52:35.869Z,39.46
2019-05-07T11:55:49.950Z,37.04
2019-05-07T11:59:04.275Z,38.12
2019-05-07T12:02:18.007Z,36.77
2019-05-07T12:05:33.253Z,36.53
2019-05-07T12:08:51.850Z,35.47
2019-05-07T12:12:02.649Z,38.51
2019-05-07T12:16:36.042Z,36.21
2019-05-07T12:19:49.978Z,35.80
2019-05-07T12:23:03.885Z,34.58
2019-05-07T12:26:17.485Z,35.14
2019-05-07T12:29:32.228Z,37.25
2019-05-07T12:32:54.422Z,37.01
2019-05-07T12:36:09.646Z,35.96
2019-05-07T12:39:23.297Z,36.75
2019-05-07T12:42:37.498Z,39.39
2019-05-07T12:45:52.511Z,40.24
2019-05-07T12:49:06.349Z,39.90
2019-05-07T12:52:34.959Z,37.13
2019-05-07T12:55:54.645Z,37.25
2019-05-07T12:59:08.876Z,39.58
2019-05-07T13:02:43.583Z,39.40
2019-05-07T13:05:56.025Z,38.17
2019-05-07T13:09:09.661Z,36.42
2019-05-07T13:12:23.310Z,37.28
2019-05-07T13:15:37.016Z,38.00
2019-05-07T13:18:52.466Z,36.37
2019-05-07T13:22:06.138Z,37.52
2019-05-07T13:25:21.605Z,36.15
2019-05-07T13:28:36.034Z,37.13
2019-05-07T13:31:54.339Z,37.60
2019-05-07T13:35:08.489Z,35.79
2019-05-07T13:38:44.681Z,35.34
2019-05-07T13:42:04.286Z,35.92
2019-05-07T13:45:41.687Z,36.08
2019-05-07T13:48:57.187Z,37.33
2019-05-07T13:52:11.824Z,37.59
2019-05-07T13:55:25.433Z,37.09
2019-05-07T13:58:39.155Z,36.48
2019-05-07T14:02:06.257Z,35.36
2019-05-07T14:05:21.761Z,37.44
2019-05-07T14:08:38.066Z,35.48
2019-05-07T14:11:52.864Z,35.32
2019-05-07T14:15:06.869Z,36.04
2019-05-07T14:18:23.229Z,34.48
2019-05-07T14:21:36.247Z,34.84
2019-05-07T14:24:50.366Z,34.77
2019-05-07T14:28:04.212Z,33.90
2019-05-07T14:31:17.918Z,33.64
2019-05-07T14:34:54.101Z,36.53
2019-05-07T14:38:13.886Z,34.21
2019-05-07T14:41:27.686Z,38.20
2019-05-07T14:44:48.364Z,35.25
2019-05-07T14:48:02.947Z,35.86
2019-05-07T14:51:17.149Z,35.46
2019-05-07T14:54:32.254Z,38.27
2019-05-07T14:57:46.289Z,38.15
2019-05-07T15:01:02.268Z,38.88
2019-05-07T15:04:15.679Z,38.21
2019-05-07T15:07:29.289Z,37.15
2019-05-07T15:10:43.338Z,36.56
2019-05-07T15:13:57.364Z,38.24
2019-05-07T15:17:24.275Z,37.78
2019-05-07T15:20:38.299Z,36.52
2019-05-07T15:23:53.994Z,35.19
2019-05-07T15:27:08.285Z,39.46
2019-05-07T15:30:23.412Z,38.73
2019-05-07T15:33:37.020Z,38.18
2019-05-07T15:36:52.608Z,37.59
2019-05-07T15:40:07.154Z,37.59
2019-05-07T15:43:21.065Z,38.75
2019-05-07T15:46:34.758Z,36.72
2019-05-07T15:49:48.260Z,38.57
2019-05-07T15:53:13.994Z,39.62
2019-05-07T15:56:27.506Z,39.53
2019-05-07T15:59:41.808Z,38.84
2019-05-07T16:03:06.281Z,38.20
2019-05-07T16:06:22.002Z,40.29
2019-05-07T16:09:44.435Z,37.83
2019-05-07T16:12:58.164Z,38.16
2019-05-07T16:16:12.108Z,37.29
2019-05-07T16:19:27.289Z,38.52
2019-05-07T16:22:44.520Z,36.81
2019-05-07T16:25:58.197Z,36.29
2019-05-07T16:29:13.275Z,34.89
2019-05-07T16:32:27.039Z,33.17
2019-05-07T16:35:42.552Z,31.78
2019-05-07T16:38:56.194Z,32.39
2019-05-07T16:42:09.948Z,34.41
2019-05-07T16:45:23.590Z,33.44
2019-05-07T16:48:37.472Z,34.72
2019-05-07T16:51:52.462Z,36.66
2019-05-07T16:55:06.533Z,37.67
2019-05-07T16:58:26.370Z,38.32
2019-05-07T17:01:40.021Z,38.63
2019-05-07T17:05:13.078Z,38.64
2019-05-07T17:08:31.866Z,37.23
2019-05-07T17:11:45.854Z,37.75
2019-05-07T17:14:59.682Z,36.67
2019-05-07T17:18:13.192Z,35.35
2019-05-07T17:21:26.715Z,35.21
2019-05-07T17:24:42.255Z,34.85
2019-05-07T17:27:55.853Z,32.83
2019-05-07T17:31:09.559Z,34.92
2019-05-07T17:34:23.102Z,35.82
2019-05-07T17:37:36.626Z,37.62
2019-05-07T17:40:52.178Z,39.43
2019-05-07T17:44:06.153Z,40.11
2019-05-07T17:47:21.838Z,40.92
2019-05-07T17:51:04.323Z,42.55
2019-05-07T17:54:17.998Z,42.83
2019-05-07T17:57:33.482Z,44.67
2019-05-07T18:00:49.317Z,47.25
2019-05-07T18:04:03.127Z,47.88
2019-05-07T18:07:16.656Z,48.38
2019-05-07T18:10:31.965Z,49.87
2019-05-07T18:13:45.874Z,50.05
2019-05-07T18:17:19.048Z,50.88
2019-05-07T18:20:32.910Z,51.55
2019-05-07T18:23:46.451Z,51.28
2019-05-07T18:27:01.911Z,52.26
2019-05-07T18:30:16.619Z,54.28
2019-05-07T18:33:52.471Z,54.19
2019-05-07T18:37:06.243Z,54.57
2019-05-07T18:40:20.592Z,55.89
2019-05-07T18:43:34.186Z,56.13
2019-05-07T18:46:47.815Z,56.18
2019-05-07T18:50:02.834Z,56.46
2019-05-07T18:53:16.561Z,58.44
2019-05-07T18:56:30.159Z,58.12
2019-05-07T18:59:43.654Z,58.15
2019-05-07T19:02:57.262Z,58.78
2019-05-07T19:06:13.147Z,59.99
2019-05-07T19:09:26.900Z,60.96
2019-05-07T19:12:42.060Z,61.44
2019-05-07T19:15:56.612Z,62.44
2019-05-07T19:19:12.321Z,64.03
2019-05-07T19:22:25.892Z,64.93
2019-05-07T19:25:41.900Z,65.98
2019-05-07T19:28:55.434Z,66.98
2019-05-07T19:32:12.102Z,67.15
2019-05-07T19:35:25.637Z,66.17
2019-05-07T19:38:39.231Z,66.66
2019-05-07T19:41:53.163Z,66.37
2019-05-07T19:45:06.861Z,66.76
2019-05-07T19:48:20.457Z,67.17
2019-05-07T19:51:33.957Z,67.68
2019-05-07T19:54:58.745Z,68.73
2019-05-07T19:58:05.285Z,68.69
2019-05-07T20:01:27.042Z,69.95
2019-05-07T20:04:42.647Z,70.71
2019-05-07T20:07:59.587Z,70.79
2019-05-07T20:11:17.684Z,70.65
2019-05-07T20:14:33.110Z,70.74
2019-05-07T20:17:46.865Z,71.47
2019-05-07T20:21:02.559Z,71.86
2019-05-07T20:24:15.985Z,71.53
2019-05-07T20:27:29.493Z,72.54
2019-05-07T20:30:43.340Z,72.94
2019-05-07T20:33:57.083Z,72.32
2019-05-07T20:37:12.722Z,73.10
2019-05-07T20:40:26.250Z,73.28
2019-05-07T20:43:39.756Z,72.64
2019-05-07T20:46:53.764Z,73.20
2019-05-07T20:50:07.601Z,73.82
2019-05-07T20:53:42.338Z,74.72
2019-05-07T20:57:02.250Z,74.15
2019-05-07T21:00:24.008Z,73.67
2019-05-07T21:03:37.502Z,73.63
2019-05-07T21:06:52.533Z,74.55
2019-05-07T21:10:06.580Z,74.40
2019-05-07T21:16:35.034Z,74.81
2019-05-07T21:19:48.627Z,75.23
2019-05-07T21:23:02.749Z,74.90
2019-05-07T21:26:16.267Z,75.06
2019-05-07T21:29:32.465Z,74.47
2019-05-07T21:32:45.545Z,74.28
2019-05-07T21:35:59.155Z,74.47
2019-05-07T21:39:13.197Z,75.11
2019-05-07T21:42:26.796Z,75.05
2019-05-07T21:45:42.325Z,74.48
2019-05-07T21:48:55.962Z,74.53
2019-05-07T21:52:09.437Z,74.75
2019-05-07T21:55:32.466Z,74.75
2019-05-07T21:58:54.105Z,74.89
2019-05-07T22:02:18.425Z,74.85
2019-05-07T22:05:31.949Z,75.10
2019-05-07T22:08:45.652Z,75.55
2019-05-07T22:11:59.238Z,75.44
2019-05-07T22:15:13.100Z,75.46
2019-05-07T22:18:26.569Z,76.49
2019-05-07T22:21:40.107Z,76.35
2019-05-07T22:24:53.589Z,76.61
2019-05-07T22:28:07.461Z,77.32
2019-05-07T22:31:44.184Z,77.32
2019-05-07T22:35:19.295Z,77.91
2019-05-07T22:38:32.895Z,77.53
2019-05-07T22:41:46.618Z,77.89
2019-05-07T22:45:02.623Z,78.61
2019-05-07T22:48:15.996Z,78.59
2019-05-07T22:51:29.476Z,78.78
2019-05-07T22:54:43.082Z,78.56
2019-05-07T22:58:04.728Z,78.85
2019-05-07T23:01:18.328Z,79.23
2019-05-07T23:04:32.656Z,79.16
2019-05-07T23:07:46.189Z,79.22
2019-05-07T23:10:59.690Z,79.78
2019-05-07T23:14:13.546Z,79.12
2019-05-07T23:17:27.321Z,79.80
2019-05-07T23:20:42.676Z,79.29
2019-05-07T23:23:56.492Z,79.34
2019-05-07T23:30:42.119Z,80.26
2019-05-07T23:33:55.642Z,80.21
2019-05-07T23:37:09.133Z,80.10
2019-05-07T23:40:30.452Z,80.05
2019-05-07T23:44:03.615Z,80.63
2019-05-07T23:47:17.213Z,81.06
2019-05-07T23:50:32.394Z,82.00
2019-05-07T23:53:46.398Z,81.41
2019-05-07T23:57:08.757Z,81.19
